createdAt,value
2022-08-10T00:00:59.507Z,66.50
2022-08-10T00:03:29.127Z,66.47
2022-08-10T00:05:58.731Z,66.38
2022-08-10T00:08:30.895Z,65.76
2022-08-10T00:11:01.026Z,66.56
2022-08-10T00:13:32.958Z,66.73
2022-08-10T00:16:02.540Z,67.97
2022-08-10T00:18:35.539Z,66.94
2022-08-10T00:21:06.865Z,66.65
2022-08-10T00:23:40.537Z,67.23
2022-08-10T00:26:10.448Z,67.41
2022-08-10T00:28:41.193Z,67.19
2022-08-10T00:31:10.733Z,66.55
2022-08-10T00:33:40.260Z,66.21
2022-08-10T00:36:10.410Z,65.48
2022-08-10T00:38:42.520Z,64.98
2022-08-10T00:41:12.176Z,65.64
2022-08-10T00:43:41.796Z,66.14
2022-08-10T00:46:11.317Z,65.70
2022-08-10T00:48:40.901Z,66.29
2022-08-10T00:51:10.462Z,67.03
2022-08-10T00:53:42.589Z,67.00
2022-08-10T00:57:14.519Z,67.58
2022-08-10T00:59:02.606Z,67.83
2022-08-10T01:02:10.716Z,67.35
2022-08-10T01:04:57.620Z,67.52
2022-08-10T01:07:21.910Z,67.44
2022-08-10T01:10:05.929Z,67.70
2022-08-10T01:12:43.267Z,68.67
2022-08-10T01:15:26.903Z,69.19
2022-08-10T01:18:04.341Z,69.94
2022-08-10T01:20:40.705Z,70.50
2022-08-10T01:23:56.212Z,70.05
2022-08-10T01:26:52.292Z,70.73
2022-08-10T01:29:58.121Z,70.69
2022-08-10T01:32:39.670Z,71.12
2022-08-10T01:35:15.707Z,70.89
2022-08-10T01:37:53.380Z,70.94
2022-08-10T01:40:27.924Z,70.68
2022-08-10T01:43:08.542Z,70.84
2022-08-10T01:45:45.805Z,70.21
2022-08-10T01:48:31.538Z,70.09
2022-08-10T01:51:20.213Z,69.28
2022-08-10T01:53:57.051Z,69.73
2022-08-10T01:56:28.837Z,70.07
2022-08-10T01:59:01.945Z,70.05
2022-08-10T02:01:36.162Z,69.52
2022-08-10T02:04:12.333Z,68.43
2022-08-10T02:06:46.252Z,68.11
2022-08-10T02:09:22.578Z,68.36
2022-08-10T02:12:05.403Z,68.50
2022-08-10T02:14:39.286Z,68.43
2022-08-10T02:17:59.498Z,68.41
2022-08-10T02:20:10.832Z,68.35
2022-08-10T02:22:42.437Z,69.11
2022-08-10T02:25:39.678Z,68.64
2022-08-10T02:28:05.877Z,68.94
2022-08-10T02:30:36.412Z,69.12
2022-08-10T02:33:07.385Z,69.84
2022-08-10T02:35:54.954Z,70.35
2022-08-10T02:38:58.208Z,70.94
2022-08-10T02:45:16.072Z,70.60
2022-08-10T02:45:22.576Z,70.30
2022-08-10T02:47:23.997Z,70.06
2022-08-10T02:50:02.180Z,70.25
2022-08-10T02:52:41.350Z,69.73
2022-08-10T02:55:18.957Z,70.21
2022-08-10T02:58:17.472Z,70.79
2022-08-10T03:00:52.474Z,71.10
2022-08-10T03:03:26.180Z,71.55
2022-08-10T03:05:59.473Z,72.45
2022-08-10T03:08:34.888Z,73.21
2022-08-10T03:11:07.629Z,73.64
2022-08-10T03:13:38.844Z,73.02
2022-08-10T03:16:10.646Z,73.33
2022-08-10T03:18:42.367Z,72.93
2022-08-10T03:21:12.967Z,72.68
2022-08-10T03:23:46.205Z,71.74
2022-08-10T03:26:20.405Z,71.21
2022-08-10T03:28:51.264Z,70.81
2022-08-10T03:31:21.281Z,71.68
2022-08-10T03:33:51.790Z,71.58
2022-08-10T03:36:39.932Z,72.05
2022-08-10T03:39:13.977Z,72.51
2022-08-10T03:41:53.410Z,72.49
2022-08-10T03:44:27.685Z,72.69
2022-08-10T03:47:00.161Z,73.04
2022-08-10T03:49:33.077Z,73.51
2022-08-10T03:52:03.572Z,73.02
2022-08-10T03:54:36.699Z,72.22
2022-08-10T03:57:06.881Z,72.67
2022-08-10T03:59:37.040Z,72.99
2022-08-10T04:02:43.559Z,72.66
2022-08-10T04:04:58.365Z,73.14
2022-08-10T04:07:28.248Z,73.19
2022-08-10T04:10:00.460Z,73.10
2022-08-10T04:12:30.054Z,73.06
2022-08-10T04:14:59.648Z,73.02
2022-08-10T04:18:02.875Z,72.49
2022-08-10T04:20:22.482Z,73.37
2022-08-10T04:22:54.816Z,73.42
2022-08-10T04:25:28.294Z,74.54
2022-08-10T04:27:58.105Z,75.18
2022-08-10T04:30:29.331Z,75.20
2022-08-10T04:33:01.367Z,75.06
2022-08-10T04:35:32.611Z,75.28
2022-08-10T04:38:03.936Z,75.62
2022-08-10T04:40:36.134Z,76.00
2022-08-10T04:43:12.798Z,75.75
2022-08-10T04:45:48.579Z,75.65
2022-08-10T04:48:43.115Z,74.87
2022-08-10T04:51:19.525Z,74.74
2022-08-10T04:54:05.579Z,74.19
2022-08-10T04:56:41.318Z,73.77
2022-08-10T04:59:13.051Z,73.79
2022-08-10T05:02:22.110Z,72.97
2022-08-10T05:04:37.817Z,72.88
2022-08-10T05:07:10.203Z,72.67
2022-08-10T05:10:01.193Z,72.53
2022-08-10T05:12:35.804Z,72.00
2022-08-10T05:15:06.045Z,72.64
2022-08-10T05:17:36.560Z,72.34
2022-08-10T05:20:07.969Z,72.49
2022-08-10T05:22:39.361Z,72.56
2022-08-10T05:25:11.694Z,72.10
2022-08-10T05:27:45.567Z,71.53
2022-08-10T05:30:19.889Z,71.25
2022-08-10T05:32:57.354Z,71.54
2022-08-10T05:35:55.202Z,71.18
2022-08-10T05:38:21.259Z,71.24
2022-08-10T05:40:52.188Z,71.33
2022-08-10T05:43:25.026Z,70.80
2022-08-10T05:46:19.688Z,70.90
2022-08-10T05:48:57.854Z,71.19
2022-08-10T05:51:31.437Z,71.27
2022-08-10T05:54:06.840Z,70.62
2022-08-10T05:56:57.119Z,70.61
2022-08-10T06:00:32.781Z,70.57
2022-08-10T06:02:30.841Z,69.63
2022-08-10T06:05:10.356Z,69.69
2022-08-10T06:07:47.429Z,69.98
2022-08-10T06:10:30.001Z,70.06
2022-08-10T06:13:26.609Z,69.47
2022-08-10T06:16:06.740Z,68.83
2022-08-10T06:18:36.682Z,68.50
2022-08-10T06:21:06.786Z,68.52
2022-08-10T06:23:39.034Z,67.18
2022-08-10T06:26:14.765Z,66.37
2022-08-10T06:29:02.668Z,64.64
2022-08-10T06:31:48.582Z,63.42
2022-08-10T06:34:23.832Z,63.16
2022-08-10T06:36:54.507Z,62.94
2022-08-10T06:39:34.814Z,62.26
2022-08-10T06:42:16.492Z,61.22
2022-08-10T06:45:00.666Z,60.53
2022-08-10T06:47:39.998Z,60.25
2022-08-10T06:50:45.370Z,60.03
2022-08-10T06:53:16.948Z,60.89
2022-08-10T06:55:56.294Z,59.93
2022-08-10T06:58:29.125Z,59.57
2022-08-10T07:01:02.980Z,59.14
2022-08-10T07:03:41.551Z,58.37
2022-08-10T07:06:15.088Z,59.54
2022-08-10T07:08:45.528Z,59.84
2022-08-10T07:11:17.064Z,59.48
2022-08-10T07:14:15.767Z,58.85
2022-08-10T07:16:39.665Z,59.81
2022-08-10T07:19:12.282Z,59.17
2022-08-10T07:21:44.074Z,59.12
2022-08-10T07:24:16.252Z,58.27
2022-08-10T07:26:51.812Z,57.98
2022-08-10T07:29:53.299Z,57.57
2022-08-10T07:32:17.838Z,58.33
2022-08-10T07:34:53.538Z,56.88
2022-08-10T07:37:25.614Z,57.68
2022-08-10T07:40:02.579Z,57.24
2022-08-10T07:42:35.836Z,57.70
2022-08-10T07:45:06.772Z,58.36
2022-08-10T07:47:52.306Z,58.39
2022-08-10T07:50:28.655Z,57.34
2022-08-10T07:53:06.668Z,57.10
2022-08-10T07:56:03.963Z,57.65
2022-08-10T07:58:32.528Z,56.61
2022-08-10T08:01:03.818Z,56.40
2022-08-10T08:03:35.598Z,55.82
2022-08-10T08:06:11.774Z,55.25
2022-08-10T08:08:45.724Z,54.86
2022-08-10T08:11:26.361Z,54.89
2022-08-10T08:13:57.846Z,55.00
2022-08-10T08:16:28.021Z,54.28
2022-08-10T08:24:05.725Z,53.18
2022-08-10T08:24:43.339Z,53.50
2022-08-10T08:27:15.307Z,52.44
2022-08-10T08:29:47.589Z,51.80
2022-08-10T08:32:22.343Z,51.77
2022-08-10T08:34:55.400Z,51.95
2022-08-10T08:38:33.561Z,51.72
2022-08-10T08:40:26.153Z,52.01
2022-08-10T08:43:23.066Z,51.56
2022-08-10T08:46:14.186Z,50.82
2022-08-10T08:49:10.881Z,50.08
2022-08-10T08:52:07.182Z,51.12
2022-08-10T08:54:47.478Z,49.76
2022-08-10T08:57:50.646Z,50.28
2022-08-10T09:00:22.005Z,50.58
2022-08-10T09:03:28.142Z,50.00
2022-08-10T09:06:09.413Z,49.28
2022-08-10T09:09:12.861Z,49.21
2022-08-10T09:12:08.473Z,49.83
2022-08-10T09:14:49.080Z,49.36
2022-08-10T09:17:24.230Z,47.85
2022-08-10T09:20:01.445Z,47.70
2022-08-10T09:22:36.745Z,46.98
2022-08-10T09:25:16.204Z,45.48
2022-08-10T09:27:50.299Z,46.84
2022-08-10T09:30:29.149Z,46.99
2022-08-10T09:36:20.493Z,45.36
2022-08-10T09:36:20.835Z,44.55
2022-08-10T09:39:10.891Z,43.39
2022-08-10T09:42:14.745Z,43.48
2022-08-10T09:44:58.896Z,43.49
2022-08-10T09:48:00.871Z,43.76
2022-08-10T09:51:22.327Z,43.29
2022-08-10T09:53:44.246Z,42.61
2022-08-10T09:56:28.803Z,42.67
2022-08-10T10:00:00.837Z,42.67
2022-08-10T10:02:17.354Z,42.30
2022-08-10T10:05:05.652Z,42.08
2022-08-10T10:07:41.385Z,41.50
2022-08-10T10:10:16.331Z,41.31
2022-08-10T10:12:55.808Z,41.12
2022-08-10T10:15:36.380Z,40.82
2022-08-10T10:18:29.517Z,39.97
2022-08-10T10:21:06.976Z,40.16
2022-08-10T10:24:21.395Z,39.68
2022-08-10T10:26:50.471Z,39.73
2022-08-10T10:32:21.373Z,40.04
2022-08-10T10:35:02.043Z,40.13
2022-08-10T10:38:01.713Z,39.66
2022-08-10T10:40:27.008Z,39.56
2022-08-10T10:43:06.110Z,38.97
2022-08-10T10:45:50.605Z,39.68
2022-08-10T10:48:29.208Z,39.35
2022-08-10T10:51:11.141Z,38.60
2022-08-10T10:53:52.330Z,39.56
2022-08-10T10:56:30.809Z,38.42
2022-08-10T10:59:54.397Z,39.48
2022-08-10T11:02:21.608Z,38.29
2022-08-10T11:05:00.741Z,38.85
2022-08-10T11:07:40.879Z,37.63
2022-08-10T11:10:32.646Z,38.24
2022-08-10T11:14:25.225Z,37.39
2022-08-10T11:16:11.774Z,37.93
2022-08-10T11:19:01.685Z,37.21
2022-08-10T11:21:43.397Z,37.86
2022-08-10T11:24:47.742Z,37.86
2022-08-10T11:27:21.822Z,37.50
2022-08-10T11:30:01.447Z,37.31
2022-08-10T11:32:38.302Z,37.85
2022-08-10T11:35:20.393Z,36.92
2022-08-10T11:38:28.373Z,36.40
2022-08-10T11:41:14.622Z,36.85
2022-08-10T11:44:05.953Z,37.14
2022-08-10T11:46:39.256Z,37.18
2022-08-10T11:49:12.663Z,37.23
2022-08-10T11:51:47.332Z,37.08
2022-08-10T11:54:26.964Z,37.28
2022-08-10T11:57:02.939Z,36.79
2022-08-10T11:59:58.137Z,37.02
2022-08-10T12:02:34.129Z,35.99
2022-08-10T12:05:10.585Z,35.25
2022-08-10T12:10:06.916Z,35.89
2022-08-10T12:10:40.617Z,35.49
2022-08-10T12:13:19.531Z,35.56
2022-08-10T12:15:55.913Z,36.43
2022-08-10T12:18:30.012Z,35.19
2022-08-10T12:21:04.011Z,35.04
2022-08-10T12:23:42.858Z,33.93
2022-08-10T12:26:20.844Z,34.35
2022-08-10T12:29:00.181Z,33.63
2022-08-10T12:31:37.788Z,34.74
2022-08-10T12:34:19.628Z,35.01
2022-08-10T12:36:53.746Z,36.17
2022-08-10T12:39:28.278Z,35.33
2022-08-10T12:42:06.256Z,34.72
2022-08-10T12:44:45.573Z,35.05
2022-08-10T12:47:22.797Z,34.55
2022-08-10T13:01:17.684Z,34.61
2022-08-10T13:04:24.173Z,35.06
2022-08-10T13:06:46.457Z,35.04
2022-08-10T13:09:25.243Z,34.93
2022-08-10T13:12:36.104Z,35.10
2022-08-10T13:14:53.641Z,34.75
2022-08-10T13:17:32.413Z,35.33
2022-08-10T13:20:21.001Z,34.17
2022-08-10T13:22:53.574Z,34.50
2022-08-10T13:25:31.533Z,34.34
2022-08-10T13:28:37.065Z,33.88
2022-08-10T13:30:56.647Z,34.26
2022-08-10T13:34:39.682Z,33.95
2022-08-10T13:36:32.273Z,33.58
2022-08-10T13:39:03.389Z,34.08
2022-08-10T13:41:38.156Z,34.77
2022-08-10T13:44:13.017Z,34.40
2022-08-10T13:46:50.803Z,34.59
2022-08-10T13:49:24.535Z,33.97
2022-08-10T13:51:58.535Z,33.79
2022-08-10T13:54:32.091Z,34.25
2022-08-10T13:57:03.672Z,34.63
2022-08-10T14:00:35.237Z,34.85
2022-08-10T14:02:30.647Z,34.49
2022-08-10T14:05:06.769Z,34.16
2022-08-10T14:08:00.152Z,33.57
2022-08-10T14:17:11.048Z,33.35
2022-08-10T14:27:23.265Z,32.76
2022-08-10T14:44:49.303Z,33.44
2022-08-10T14:47:54.097Z,32.11
2022-08-10T14:50:32.001Z,32.05
2022-08-10T14:53:10.459Z,32.66
2022-08-10T14:55:58.979Z,32.13
2022-08-10T14:58:35.904Z,32.76
2022-08-10T15:01:11.274Z,32.24
2022-08-10T15:04:01.655Z,32.06
2022-08-10T15:06:41.959Z,32.83
2022-08-10T15:09:20.117Z,32.33
2022-08-10T15:12:13.080Z,32.48
2022-08-10T15:14:46.064Z,32.90
2022-08-10T15:17:18.754Z,32.64
2022-08-10T15:20:04.646Z,32.24
2022-08-10T15:22:50.150Z,32.00
2022-08-10T15:25:26.045Z,31.72
2022-08-10T15:28:06.517Z,32.73
2022-08-10T15:30:43.717Z,32.59
2022-08-10T15:33:57.948Z,33.16
2022-08-10T15:36:47.784Z,32.76
2022-08-10T15:40:24.333Z,32.91
2022-08-10T15:42:38.271Z,32.80
2022-08-10T15:45:18.913Z,33.29
2022-08-10T15:48:01.106Z,33.57
2022-08-10T15:50:40.521Z,33.39
2022-08-10T15:53:17.914Z,33.53
2022-08-10T15:55:53.024Z,33.59
2022-08-10T15:58:40.167Z,33.00
2022-08-10T16:02:15.117Z,33.14
2022-08-10T16:04:08.340Z,33.93
2022-08-10T16:06:44.394Z,33.17
2022-08-10T16:10:23.922Z,33.01
2022-08-10T16:12:16.056Z,33.57
2022-08-10T16:14:52.235Z,32.89
2022-08-10T16:17:23.668Z,33.16
2022-08-10T16:19:56.988Z,33.18
2022-08-10T16:22:36.110Z,33.36
2022-08-10T16:25:16.678Z,33.65
2022-08-10T16:27:47.786Z,33.45
2022-08-10T16:30:20.225Z,33.51
2022-08-10T16:32:54.071Z,33.34
2022-08-10T16:35:25.490Z,32.93
2022-08-10T16:38:01.270Z,32.82
2022-08-10T16:40:33.477Z,33.57
2022-08-10T16:43:06.652Z,33.34
2022-08-10T16:45:44.068Z,33.13
2022-08-10T16:48:48.944Z,33.15
2022-08-10T16:51:09.905Z,33.85
2022-08-10T16:53:47.546Z,33.29
2022-08-10T16:56:18.841Z,33.01
2022-08-10T16:58:57.185Z,32.60
2022-08-10T17:01:42.123Z,33.50
2022-08-10T17:04:25.096Z,33.63
2022-08-10T17:06:59.377Z,33.29
2022-08-10T17:09:33.160Z,33.39
2022-08-10T17:12:10.772Z,33.58
2022-08-10T17:14:43.578Z,33.49
2022-08-10T17:17:24.206Z,33.73
2022-08-10T17:20:31.485Z,34.14
2022-08-10T17:22:55.033Z,34.11
2022-08-10T17:25:48.635Z,33.63
2022-08-10T17:28:34.645Z,34.08
2022-08-10T17:31:23.586Z,34.01
2022-08-10T17:34:02.286Z,34.25
2022-08-10T17:36:37.094Z,34.07
2022-08-10T17:39:07.932Z,34.32
2022-08-10T17:41:40.405Z,34.89
2022-08-10T17:44:13.058Z,34.33
2022-08-10T17:46:46.741Z,34.54
2022-08-10T17:49:22.669Z,34.56
2022-08-10T17:51:56.108Z,34.98
2022-08-10T17:54:30.717Z,34.81
2022-08-10T17:57:03.187Z,34.95
2022-08-10T17:59:34.752Z,35.04
2022-08-10T18:02:09.896Z,35.63
2022-08-10T18:04:48.540Z,35.56
2022-08-10T18:07:18.951Z,36.04
2022-08-10T18:09:52.582Z,36.09
2022-08-10T18:12:33.851Z,36.00
2022-08-10T18:15:12.089Z,35.96
2022-08-10T18:17:47.466Z,36.34
2022-08-10T18:20:27.866Z,36.71
2022-08-10T18:22:59.922Z,37.20
2022-08-10T18:25:33.173Z,36.62
2022-08-10T18:28:06.354Z,37.01
2022-08-10T18:30:46.035Z,36.74
2022-08-10T18:33:16.887Z,36.77
2022-08-10T18:35:52.818Z,37.24
2022-08-10T18:38:24.747Z,37.76
2022-08-10T18:41:00.360Z,37.67
2022-08-10T18:44:10.137Z,37.33
2022-08-10T18:46:31.136Z,37.93
2022-08-10T18:49:06.142Z,38.11
2022-08-10T18:51:46.853Z,38.05
2022-08-10T18:54:38.897Z,38.17
2022-08-10T18:57:23.544Z,38.79
2022-08-10T19:00:13.306Z,38.99
2022-08-10T19:03:07.750Z,39.30
2022-08-10T19:06:19.545Z,39.13
2022-08-10T19:09:46.219Z,39.41
2022-08-10T19:12:30.384Z,39.37
2022-08-10T19:15:11.430Z,40.53
2022-08-10T19:18:03.346Z,40.52
2022-08-10T19:20:38.713Z,41.29
2022-08-10T19:23:19.676Z,41.45
2022-08-10T19:26:37.803Z,41.92
2022-08-10T19:29:00.705Z,42.41
2022-08-10T19:31:44.274Z,42.97
2022-08-10T19:34:25.306Z,43.15
2022-08-10T19:37:07.234Z,44.17
2022-08-10T19:39:50.968Z,43.90
2022-08-10T19:42:33.387Z,44.58
2022-08-10T19:46:00.795Z,45.10
2022-08-10T19:48:14.474Z,45.27
2022-08-10T19:50:50.978Z,45.41
2022-08-10T19:53:27.651Z,45.50
2022-08-10T19:56:30.545Z,45.36
2022-08-10T19:59:05.831Z,45.40
2022-08-10T20:01:54.309Z,45.25
2022-08-10T20:04:31.796Z,45.41
2022-08-10T20:07:15.042Z,44.94
2022-08-10T20:09:50.950Z,45.07
2022-08-10T20:12:37.613Z,45.85
2022-08-10T20:15:20.054Z,45.31
2022-08-10T20:17:57.314Z,45.57
2022-08-10T20:20:32.027Z,45.90
2022-08-10T20:23:11.124Z,46.61
2022-08-10T20:25:43.919Z,46.12
2022-08-10T20:28:22.108Z,46.45
2022-08-10T20:31:02.489Z,46.81
2022-08-10T20:33:37.123Z,47.06
2022-08-10T20:36:14.207Z,46.92
2022-08-10T20:39:00.260Z,47.23
2022-08-10T20:41:43.739Z,48.59
2022-08-10T20:44:29.185Z,49.63
2022-08-10T20:47:08.124Z,49.62
2022-08-10T20:49:48.374Z,49.44
2022-08-10T20:52:19.235Z,48.81
2022-08-10T20:54:53.814Z,48.43
2022-08-10T20:57:56.929Z,48.76
2022-08-10T21:00:44.922Z,48.67
2022-08-10T21:03:33.730Z,49.14
2022-08-10T21:06:36.230Z,49.57
2022-08-10T21:09:32.257Z,50.41
2022-08-10T21:12:19.401Z,50.75
2022-08-10T21:15:02.803Z,51.90
2022-08-10T21:17:49.659Z,51.81
2022-08-10T21:20:47.256Z,51.96
2022-08-10T21:23:19.627Z,52.92
2022-08-10T21:26:09.451Z,52.61
2022-08-10T21:28:56.022Z,52.04
2022-08-10T21:31:41.517Z,52.88
2022-08-10T21:37:22.591Z,52.48
2022-08-10T21:40:05.124Z,52.45
2022-08-10T21:43:19.410Z,52.59
2022-08-10T21:46:13.173Z,52.74
2022-08-10T21:49:01.371Z,52.85
2022-08-10T21:52:00.428Z,53.05
2022-08-10T21:54:54.549Z,54.21
2022-08-10T21:57:44.110Z,54.08
2022-08-10T22:00:29.702Z,54.57
2022-08-10T22:03:15.761Z,54.55
2022-08-10T22:06:05.802Z,55.04
2022-08-10T22:08:54.069Z,54.64
2022-08-10T22:11:43.372Z,54.96
2022-08-10T22:14:27.031Z,55.46
2022-08-10T22:17:59.381Z,55.38
2022-08-10T22:20:29.493Z,55.66
2022-08-10T22:23:28.770Z,55.26
2022-08-10T22:26:21.621Z,55.88
2022-08-10T22:29:08.910Z,55.73
2022-08-10T22:31:24.823Z,52.37
2022-08-10T22:32:09.708Z,56.71
2022-08-10T22:35:01.089Z,57.24
2022-08-10T22:37:58.467Z,57.12
2022-08-10T22:40:50.106Z,57.61
2022-08-10T22:43:38.899Z,57.26
2022-08-10T22:46:30.795Z,57.25
2022-08-10T22:49:00.522Z,57.85
2022-08-10T22:51:42.574Z,58.16
2022-08-10T22:54:31.813Z,57.94
2022-08-10T22:57:16.019Z,58.11
2022-08-10T22:59:45.679Z,58.48
2022-08-10T23:02:29.645Z,58.62
2022-08-10T23:05:07.439Z,58.70
2022-08-10T23:07:44.217Z,58.49
2022-08-10T23:10:17.251Z,59.06
2022-08-10T23:12:53.959Z,59.16
2022-08-10T23:15:41.620Z,59.49
2022-08-10T23:18:33.925Z,60.06
2022-08-10T23:21:05.109Z,60.24
2022-08-10T23:23:41.163Z,59.84
2022-08-10T23:26:12.901Z,61.33
2022-08-10T23:28:58.836Z,61.17
2022-08-10T23:31:58.265Z,61.05
2022-08-10T23:34:32.679Z,60.92
2022-08-10T23:37:04.302Z,60.98
2022-08-10T23:39:37.255Z,60.17
2022-08-10T23:42:11.456Z,59.90
2022-08-10T23:44:46.860Z,60.62
2022-08-10T23:47:21.256Z,60.97
2022-08-10T23:49:56.676Z,61.38
2022-08-10T23:52:28.178Z,61.10
2022-08-10T23:55:00.842Z,61.59
2022-08-10T23:57:35.049Z,61.09
